createdAt,value
2023-04-07T00:00:36.059Z,3.10
2023-04-07T00:03:07.452Z,3.00
2023-04-07T00:05:35.592Z,2.90
2023-04-07T00:08:03.359Z,2.90
2023-04-07T00:10:31.237Z,3.00
2023-04-07T00:12:59.107Z,2.90
2023-04-07T00:15:27.409Z,2.90
2023-04-07T00:17:55.246Z,2.90
2023-04-07T00:20:24.625Z,2.90
2023-04-07T00:22:52.395Z,3.00
2023-04-07T00:25:20.402Z,3.10
2023-04-07T00:27:48.205Z,3.10
2023-04-07T00:30:25.470Z,3.00
2023-04-07T00:32:53.283Z,3.00
2023-04-07T00:35:21.315Z,2.90
2023-04-07T00:37:50.398Z,2.90
2023-04-07T00:40:18.997Z,2.90
2023-04-07T00:42:46.700Z,2.80
2023-04-07T00:45:14.479Z,2.80
2023-04-07T00:47:42.421Z,2.80
2023-04-07T00:50:11.048Z,2.70
2023-04-07T00:52:39.026Z,2.70
2023-04-07T00:55:09.105Z,2.60
2023-04-07T00:57:36.854Z,2.60
2023-04-07T01:00:06.637Z,2.60
2023-04-07T01:02:42.523Z,2.60
2023-04-07T01:05:17.637Z,2.50
2023-04-07T01:07:53.603Z,2.50
2023-04-07T01:10:33.363Z,2.40
2023-04-07T01:13:07.324Z,2.40
2023-04-07T01:15:36.154Z,2.40
2023-04-07T01:18:11.734Z,2.30
2023-04-07T01:20:40.982Z,2.30
2023-04-07T01:23:09.346Z,2.20
2023-04-07T01:26:01.581Z,2.20
2023-04-07T01:28:45.903Z,2.20
2023-04-07T01:31:17.713Z,2.30
2023-04-07T01:33:47.362Z,2.20
2023-04-07T01:36:17.345Z,2.20
2023-04-07T01:38:46.550Z,2.20
2023-04-07T01:41:16.078Z,2.10
2023-04-07T01:43:45.241Z,2.20
2023-04-07T01:46:15.776Z,2.10
2023-04-07T01:48:44.053Z,2.10
2023-04-07T01:51:17.303Z,2.00
2023-04-07T01:53:45.967Z,1.80
2023-04-07T01:56:13.903Z,1.80
2023-04-07T01:58:42.102Z,1.80
2023-04-07T02:01:09.957Z,1.70
2023-04-07T02:03:44.400Z,1.60
2023-04-07T02:06:16.476Z,1.60
2023-04-07T02:08:48.764Z,1.50
2023-04-07T02:11:19.303Z,1.50
2023-04-07T02:13:47.997Z,1.50
2023-04-07T02:16:17.368Z,1.50
2023-04-07T02:18:48.203Z,1.50
2023-04-07T02:21:16.830Z,1.50
2023-04-07T02:23:44.788Z,1.60
2023-04-07T02:26:12.682Z,1.50
2023-04-07T02:28:40.594Z,1.50
2023-04-07T02:31:08.356Z,1.60
2023-04-07T02:33:36.249Z,1.60
2023-04-07T02:36:05.755Z,1.80
2023-04-07T02:38:33.550Z,1.80
2023-04-07T02:41:01.354Z,1.80
2023-04-07T02:43:29.126Z,1.70
2023-04-07T02:45:56.927Z,1.70
2023-04-07T02:48:24.708Z,1.70
2023-04-07T02:50:52.430Z,1.60
2023-04-07T02:53:21.692Z,1.70
2023-04-07T02:55:49.853Z,1.70
2023-04-07T02:58:17.705Z,1.70
2023-04-07T03:00:45.527Z,1.70
2023-04-07T03:03:13.415Z,1.80
2023-04-07T03:05:41.353Z,1.90
2023-04-07T03:08:10.101Z,1.90
2023-04-07T03:10:40.096Z,1.90
2023-04-07T03:13:09.266Z,1.90
2023-04-07T03:15:39.533Z,1.90
2023-04-07T03:18:07.480Z,2.00
2023-04-07T03:20:35.307Z,2.00
2023-04-07T03:23:03.072Z,1.90
2023-04-07T03:25:31.303Z,1.80
2023-04-07T03:28:00.478Z,1.80
2023-04-07T03:30:28.451Z,1.70
2023-04-07T03:32:56.287Z,1.70
2023-04-07T03:35:24.336Z,1.80
2023-04-07T03:37:52.184Z,1.80
2023-04-07T03:40:20.190Z,1.90
2023-04-07T03:42:48.060Z,1.80
2023-04-07T03:45:17.449Z,1.70
2023-04-07T03:47:45.390Z,1.70
2023-04-07T03:50:13.146Z,1.80
2023-04-07T03:52:40.897Z,1.70
2023-04-07T03:55:09.706Z,1.60
2023-04-07T03:57:37.542Z,1.50
2023-04-07T04:00:07.052Z,1.40
2023-04-07T04:02:36.529Z,1.40
2023-04-07T04:05:04.575Z,1.40
2023-04-07T04:07:33.688Z,1.30
2023-04-07T04:10:01.752Z,1.30
2023-04-07T04:12:29.695Z,1.20
2023-04-07T04:14:57.639Z,1.20
2023-04-07T04:17:27.045Z,1.10
2023-04-07T04:19:56.333Z,1.00
2023-04-07T04:22:24.118Z,1.00
2023-04-07T04:24:54.834Z,0.90
2023-04-07T04:27:22.689Z,0.90
2023-04-07T04:29:50.568Z,0.90
2023-04-07T04:32:18.736Z,0.80
2023-04-07T04:34:46.683Z,0.80
2023-04-07T04:37:15.874Z,0.80
2023-04-07T04:39:44.180Z,0.80
2023-04-07T04:42:11.934Z,0.80
2023-04-07T04:44:39.690Z,0.80
2023-04-07T04:47:07.574Z,0.70
2023-04-07T04:49:36.101Z,0.70
2023-04-07T04:52:03.995Z,0.70
2023-04-07T04:54:33.558Z,0.70
2023-04-07T04:57:01.678Z,0.70
2023-04-07T04:59:29.653Z,0.80
2023-04-07T05:01:57.447Z,0.80
2023-04-07T05:04:25.679Z,0.80
2023-04-07T05:06:53.866Z,0.80
2023-04-07T05:09:21.563Z,0.90
2023-04-07T05:11:50.807Z,0.90
2023-04-07T05:14:18.656Z,0.90
2023-04-07T05:16:46.562Z,1.00
2023-04-07T05:19:14.307Z,0.90
2023-04-07T05:21:42.025Z,1.00
2023-04-07T05:24:09.920Z,1.10
2023-04-07T05:26:37.979Z,1.10
2023-04-07T05:29:07.381Z,1.10
2023-04-07T05:31:37.416Z,1.10
2023-04-07T05:34:05.795Z,1.10
2023-04-07T05:36:34.060Z,1.20
2023-04-07T05:39:02.070Z,1.30
2023-04-07T05:41:30.010Z,1.30
2023-04-07T05:43:57.784Z,1.40
2023-04-07T05:46:26.856Z,1.40
2023-04-07T05:48:55.124Z,1.40
2023-04-07T05:51:22.893Z,1.40
2023-04-07T05:53:50.954Z,1.40
2023-04-07T05:56:18.972Z,1.40
2023-04-07T05:58:47.222Z,1.50
2023-04-07T06:01:14.991Z,1.50
2023-04-07T06:03:44.256Z,1.60
2023-04-07T06:06:12.308Z,1.60
2023-04-07T06:08:40.165Z,1.70
2023-04-07T06:11:07.991Z,1.70
2023-04-07T06:13:35.932Z,1.80
2023-04-07T06:16:03.845Z,1.90
2023-04-07T06:18:31.744Z,2.00
2023-04-07T06:21:02.227Z,2.10
2023-04-07T06:23:30.285Z,2.20
2023-04-07T06:25:58.268Z,2.20
2023-04-07T06:28:26.442Z,2.30
2023-04-07T06:30:54.368Z,2.40
2023-04-07T06:33:25.556Z,2.60
2023-04-07T06:35:53.702Z,2.60
2023-04-07T06:38:23.019Z,2.70
2023-04-07T06:40:50.882Z,2.80
2023-04-07T06:43:18.750Z,2.90
2023-04-07T06:45:46.636Z,3.00
2023-04-07T06:48:14.452Z,3.00
2023-04-07T06:50:42.717Z,3.40
2023-04-07T06:53:10.656Z,4.00
2023-04-07T06:55:39.962Z,4.40
2023-04-07T06:58:07.725Z,4.70
2023-04-07T07:00:36.026Z,5.00
2023-04-07T07:03:04.066Z,5.00
2023-04-07T07:05:32.266Z,5.50
2023-04-07T07:08:00.269Z,5.80
2023-04-07T07:10:28.193Z,6.00
2023-04-07T07:12:57.430Z,6.10
2023-04-07T07:15:25.222Z,6.30
2023-04-07T07:17:53.129Z,6.40
2023-04-07T07:20:23.484Z,6.50
2023-04-07T07:22:51.786Z,6.50
2023-04-07T07:25:19.528Z,6.50
2023-04-07T07:27:47.316Z,6.30
2023-04-07T07:30:16.542Z,5.90
2023-04-07T07:32:44.577Z,5.70
2023-04-07T07:35:12.522Z,5.70
2023-04-07T07:37:40.292Z,5.80
2023-04-07T07:40:08.738Z,5.90
2023-04-07T07:42:36.544Z,6.20
2023-04-07T07:45:04.809Z,6.20
2023-04-07T07:47:37.999Z,6.40
2023-04-07T07:50:09.704Z,6.40
2023-04-07T07:52:37.757Z,6.50
2023-04-07T07:55:06.063Z,6.70
2023-04-07T07:57:36.502Z,6.70
2023-04-07T08:00:04.923Z,6.70
2023-04-07T08:02:34.026Z,6.60
2023-04-07T08:05:03.402Z,6.70
2023-04-07T08:07:40.653Z,6.80
2023-04-07T08:10:13.981Z,6.90
2023-04-07T08:12:41.942Z,6.90
2023-04-07T08:15:10.403Z,6.80
2023-04-07T08:17:45.737Z,6.80
2023-04-07T08:20:15.105Z,6.90
2023-04-07T08:22:43.727Z,7.10
2023-04-07T08:28:40.137Z,7.60
2023-04-07T08:31:08.558Z,8.00
2023-04-07T08:33:36.446Z,8.40
2023-04-07T08:36:06.534Z,8.60
2023-04-07T08:38:34.592Z,8.80
2023-04-07T08:41:05.785Z,9.10
2023-04-07T08:43:36.370Z,9.30
2023-04-07T08:46:04.354Z,9.30
2023-04-07T08:48:34.150Z,9.40
2023-04-07T08:51:08.243Z,9.50
2023-04-07T08:53:41.665Z,9.80
2023-04-07T08:56:12.408Z,10.00
2023-04-07T08:58:41.102Z,10.10
2023-04-07T09:01:10.124Z,10.30
2023-04-07T09:03:49.199Z,10.50
2023-04-07T09:06:21.570Z,10.70
2023-04-07T09:08:49.389Z,10.70
2023-04-07T09:11:17.121Z,10.80
2023-04-07T09:13:47.844Z,10.90
2023-04-07T09:16:16.251Z,10.80
2023-04-07T09:18:44.582Z,10.80
2023-04-07T09:21:13.887Z,10.80
2023-04-07T09:23:44.480Z,11.00
2023-04-07T09:26:24.398Z,11.20
2023-04-07T09:28:55.688Z,11.30
2023-04-07T09:31:26.316Z,11.30
2023-04-07T09:33:54.410Z,11.30
2023-04-07T09:36:22.291Z,11.30
2023-04-07T09:38:51.434Z,11.50
2023-04-07T09:41:19.373Z,11.40
2023-04-07T09:43:49.449Z,11.20
2023-04-07T09:46:19.331Z,11.20
2023-04-07T09:48:48.613Z,11.40
2023-04-07T09:51:18.436Z,11.30
2023-04-07T09:53:49.049Z,11.30
2023-04-07T09:56:19.825Z,11.30
2023-04-07T09:58:48.972Z,11.20
2023-04-07T10:01:18.434Z,11.40
2023-04-07T10:03:48.379Z,11.50
2023-04-07T10:06:16.769Z,11.60
2023-04-07T10:08:45.032Z,11.60
2023-04-07T10:11:13.012Z,11.50
2023-04-07T10:13:52.566Z,11.60
2023-04-07T10:16:21.021Z,11.90
2023-04-07T10:18:49.972Z,11.80
2023-04-07T10:21:20.659Z,11.90
2023-04-07T10:23:57.948Z,12.60
2023-04-07T10:26:34.121Z,12.80
2023-04-07T10:29:09.552Z,12.90
2023-04-07T10:31:47.341Z,12.90
2023-04-07T10:34:15.315Z,13.20
2023-04-07T10:37:11.192Z,13.50
2023-04-07T10:39:39.043Z,13.70
2023-04-07T10:42:07.076Z,13.40
2023-04-07T10:44:53.111Z,13.60
2023-04-07T10:47:21.240Z,13.60
2023-04-07T10:50:16.746Z,13.90
2023-04-07T10:52:44.862Z,14.30
2023-04-07T10:55:34.526Z,14.20
2023-04-07T10:58:23.063Z,14.10
2023-04-07T11:01:22.914Z,14.20
2023-04-07T11:04:00.285Z,14.60
2023-04-07T11:06:28.736Z,14.60
2023-04-07T11:08:56.966Z,13.70
2023-04-07T11:11:42.459Z,13.10
2023-04-07T11:14:27.379Z,13.30
2023-04-07T11:17:01.612Z,13.60
2023-04-07T11:19:32.420Z,13.90
2023-04-07T11:24:57.312Z,14.30
2023-04-07T11:27:28.606Z,14.40
2023-04-07T11:29:58.217Z,14.00
2023-04-07T11:32:29.797Z,13.80
2023-04-07T11:34:58.759Z,13.50
2023-04-07T11:37:37.445Z,13.80
2023-04-07T11:40:06.234Z,13.90
2023-04-07T11:42:34.927Z,13.70
2023-04-07T11:45:03.017Z,13.70
2023-04-07T11:47:39.132Z,14.20
2023-04-07T11:50:08.263Z,13.60
2023-04-07T11:52:42.857Z,13.70
2023-04-07T11:55:20.821Z,14.20
2023-04-07T11:57:51.294Z,14.20
2023-04-07T12:00:20.561Z,14.80
2023-04-07T12:02:49.944Z,15.00
2023-04-07T12:05:18.204Z,15.20
2023-04-07T12:07:55.471Z,15.20
2023-04-07T12:10:26.580Z,15.10
2023-04-07T12:12:54.414Z,14.60
2023-04-07T12:15:22.944Z,14.10
2023-04-07T12:17:52.143Z,14.30
2023-04-07T12:20:19.964Z,14.10
2023-04-07T12:22:47.768Z,13.80
2023-04-07T12:25:15.943Z,14.30
2023-04-07T12:27:44.126Z,14.60
2023-04-07T12:30:12.892Z,15.00
2023-04-07T12:32:41.461Z,14.70
2023-04-07T12:35:10.978Z,15.00
2023-04-07T12:37:38.825Z,15.20
2023-04-07T12:40:08.032Z,15.40
2023-04-07T12:42:36.166Z,15.70
2023-04-07T12:45:04.575Z,15.90
2023-04-07T12:47:32.742Z,15.80
2023-04-07T12:50:00.698Z,15.90
2023-04-07T12:52:29.785Z,15.70
2023-04-07T12:54:58.516Z,15.80
2023-04-07T12:57:29.519Z,15.50
2023-04-07T12:59:57.639Z,15.10
2023-04-07T13:02:25.755Z,15.20
2023-04-07T13:04:53.883Z,15.30
2023-04-07T13:07:22.111Z,15.00
2023-04-07T13:09:51.217Z,15.20
2023-04-07T13:12:19.036Z,15.60
2023-04-07T13:14:59.306Z,15.70
2023-04-07T13:17:28.965Z,16.00
2023-04-07T13:19:57.457Z,15.10
2023-04-07T13:22:29.679Z,15.40
2023-04-07T13:25:00.818Z,16.30
2023-04-07T13:27:29.690Z,17.20
2023-04-07T13:29:57.913Z,17.50
2023-04-07T13:32:25.952Z,18.00
2023-04-07T13:34:53.853Z,17.00
2023-04-07T13:37:21.580Z,16.60
2023-04-07T13:39:49.473Z,17.20
2023-04-07T13:42:20.497Z,16.70
2023-04-07T13:44:50.565Z,16.40
2023-04-07T13:47:20.314Z,16.70
2023-04-07T13:49:49.323Z,16.70
2023-04-07T13:52:17.788Z,16.90
2023-04-07T13:54:46.127Z,17.20
2023-04-07T13:57:19.250Z,18.10
2023-04-07T13:59:52.132Z,18.40
2023-04-07T14:02:20.573Z,18.70
2023-04-07T14:04:48.460Z,16.30
2023-04-07T14:07:16.255Z,16.10
2023-04-07T14:09:44.386Z,15.20
2023-04-07T14:12:12.261Z,15.20
2023-04-07T14:14:40.470Z,17.30
2023-04-07T14:17:09.623Z,18.70
2023-04-07T14:19:37.554Z,19.70
2023-04-07T14:22:05.877Z,19.80
2023-04-07T14:24:33.770Z,19.60
2023-04-07T14:27:04.948Z,19.10
2023-04-07T14:29:33.020Z,19.60
2023-04-07T14:32:01.007Z,19.30
2023-04-07T14:34:30.420Z,18.60
2023-04-07T14:36:59.665Z,17.80
2023-04-07T14:39:27.624Z,17.10
2023-04-07T14:41:55.463Z,16.90
2023-04-07T14:44:31.716Z,17.40
2023-04-07T14:47:03.072Z,17.50
2023-04-07T14:49:32.156Z,16.70
2023-04-07T14:52:01.315Z,16.80
2023-04-07T14:54:29.739Z,17.60
2023-04-07T14:56:57.605Z,18.50
2023-04-07T14:59:25.650Z,18.40
2023-04-07T15:01:54.366Z,18.10
2023-04-07T15:04:22.438Z,18.50
2023-04-07T15:06:51.666Z,16.30
2023-04-07T15:09:19.506Z,16.50
2023-04-07T15:11:47.156Z,17.90
2023-04-07T15:14:27.385Z,18.10
2023-04-07T15:17:43.003Z,18.50
2023-04-07T15:20:13.229Z,18.40
2023-04-07T15:22:42.818Z,17.80
2023-04-07T15:25:10.580Z,18.20
2023-04-07T15:27:38.360Z,18.90
2023-04-07T15:30:07.033Z,19.20
2023-04-07T15:32:34.850Z,18.30
2023-04-07T15:35:02.693Z,17.30
2023-04-07T15:37:30.440Z,17.00
2023-04-07T15:39:59.484Z,17.40
2023-04-07T15:42:27.197Z,17.50
2023-04-07T15:44:54.897Z,18.10
2023-04-07T15:47:22.831Z,18.50
2023-04-07T15:49:50.603Z,18.70
2023-04-07T15:52:18.335Z,19.30
2023-04-07T15:54:46.515Z,19.80
2023-04-07T15:57:16.783Z,20.30
2023-04-07T15:59:44.566Z,21.00
2023-04-07T16:02:14.129Z,20.30
2023-04-07T16:04:42.621Z,19.50
2023-04-07T16:07:10.365Z,19.50
2023-04-07T16:09:38.734Z,19.60
2023-04-07T16:12:06.486Z,20.40
2023-04-07T16:14:36.212Z,19.50
2023-04-07T16:17:04.048Z,19.30
2023-04-07T16:19:31.751Z,19.00
2023-04-07T16:21:59.577Z,18.30
2023-04-07T16:24:27.336Z,17.40
2023-04-07T16:26:55.794Z,15.90
2023-04-07T16:29:23.800Z,14.50
2023-04-07T16:31:52.819Z,13.30
2023-04-07T16:34:25.181Z,13.20
2023-04-07T16:36:53.823Z,13.00
2023-04-07T16:39:22.977Z,12.80
2023-04-07T16:41:52.368Z,12.50
2023-04-07T16:44:22.054Z,11.90
2023-04-07T16:46:49.872Z,11.80
2023-04-07T16:49:20.409Z,11.90
2023-04-07T16:51:49.361Z,12.10
2023-04-07T16:54:17.176Z,12.00
2023-04-07T16:56:46.390Z,11.90
2023-04-07T16:59:14.125Z,11.60
2023-04-07T17:01:44.836Z,11.30
2023-04-07T17:04:14.497Z,11.00
2023-04-07T17:06:44.248Z,10.70
2023-04-07T17:09:16.077Z,10.40
2023-04-07T17:11:43.968Z,10.40
2023-04-07T17:14:11.710Z,10.40
2023-04-07T17:16:41.325Z,10.60
2023-04-07T17:19:09.606Z,10.80
2023-04-07T17:21:38.381Z,10.90
2023-04-07T17:24:09.456Z,10.60
2023-04-07T17:26:37.286Z,10.20
2023-04-07T17:29:05.126Z,10.10
2023-04-07T17:31:34.450Z,10.10
2023-04-07T17:34:02.482Z,10.30
2023-04-07T17:36:32.473Z,10.30
2023-04-07T17:39:01.077Z,10.30
2023-04-07T17:41:32.704Z,10.00
2023-04-07T17:44:03.769Z,9.60
2023-04-07T17:46:31.798Z,9.50
2023-04-07T17:48:59.645Z,9.20
2023-04-07T17:51:28.819Z,9.10
2023-04-07T17:53:56.723Z,8.90
2023-04-07T17:56:25.499Z,8.90
2023-04-07T17:58:54.603Z,8.80
2023-04-07T18:01:22.527Z,8.70
2023-04-07T18:03:51.604Z,8.60
2023-04-07T18:06:20.052Z,8.50
2023-04-07T18:08:48.422Z,8.40
2023-04-07T18:11:16.705Z,8.40
2023-04-07T18:13:44.871Z,8.30
2023-04-07T18:16:19.834Z,8.10
2023-04-07T18:18:49.267Z,8.10
2023-04-07T18:21:17.086Z,7.90
2023-04-07T18:23:44.904Z,7.90
2023-04-07T18:26:12.835Z,7.90
2023-04-07T18:28:40.706Z,7.80
2023-04-07T18:31:12.216Z,7.70
2023-04-07T18:33:41.267Z,7.80
2023-04-07T18:36:09.318Z,7.70
2023-04-07T18:38:38.036Z,7.60
2023-04-07T18:41:07.717Z,7.50
2023-04-07T18:43:35.576Z,7.50
2023-04-07T18:46:03.481Z,7.40
2023-04-07T18:48:31.333Z,7.40
2023-04-07T18:51:00.444Z,7.30
2023-04-07T18:53:30.924Z,7.20
2023-04-07T18:55:59.533Z,7.20
2023-04-07T18:58:27.435Z,7.20
2023-04-07T19:00:57.781Z,7.10
2023-04-07T19:03:26.482Z,7.10
2023-04-07T19:05:55.307Z,7.10
2023-04-07T19:08:24.587Z,7.00
2023-04-07T19:10:52.313Z,7.00
2023-04-07T19:13:20.414Z,7.00
2023-04-07T19:15:48.383Z,7.00
2023-04-07T19:18:16.597Z,7.00
2023-04-07T19:20:44.563Z,7.00
2023-04-07T19:23:12.287Z,6.90
2023-04-07T19:25:53.283Z,6.90
2023-04-07T19:28:21.364Z,6.80
2023-04-07T19:30:50.453Z,6.80
2023-04-07T19:33:18.364Z,6.80
2023-04-07T19:35:46.421Z,6.80
2023-04-07T19:38:14.200Z,6.80
2023-04-07T19:40:44.742Z,6.70
2023-04-07T19:43:16.366Z,6.70
2023-04-07T19:45:47.569Z,6.60
2023-04-07T19:48:15.648Z,6.60
2023-04-07T19:50:44.093Z,6.50
2023-04-07T19:53:16.049Z,6.50
2023-04-07T19:55:43.825Z,6.40
2023-04-07T19:58:11.763Z,6.40
2023-04-07T20:00:41.446Z,6.40
2023-04-07T20:03:09.421Z,6.20
2023-04-07T20:05:38.305Z,6.20
2023-04-07T20:08:06.108Z,6.20
2023-04-07T20:10:36.689Z,6.10
2023-04-07T20:13:06.289Z,6.10
2023-04-07T20:15:34.242Z,6.10
2023-04-07T20:18:03.533Z,6.00
2023-04-07T20:20:31.613Z,6.00
2023-04-07T20:22:59.537Z,6.00
2023-04-07T20:25:32.006Z,5.90
2023-04-07T20:28:10.844Z,5.90
2023-04-07T20:30:38.727Z,5.90
2023-04-07T20:36:03.481Z,5.70
2023-04-07T20:38:39.045Z,5.70
2023-04-07T20:41:07.414Z,5.70
2023-04-07T20:43:40.628Z,5.60
2023-04-07T20:46:08.527Z,5.60
2023-04-07T20:48:38.092Z,5.50
2023-04-07T20:51:05.889Z,5.50
2023-04-07T20:53:33.820Z,5.50
2023-04-07T20:56:03.192Z,5.50
2023-04-07T20:58:34.030Z,5.40
2023-04-07T21:01:02.193Z,5.40
2023-04-07T21:03:41.055Z,5.30
2023-04-07T21:06:59.528Z,5.40
2023-04-07T21:09:54.341Z,5.40
2023-04-07T21:12:22.918Z,5.40
2023-04-07T21:14:58.170Z,5.40
2023-04-07T21:17:25.965Z,5.40
2023-04-07T21:19:55.099Z,5.40
2023-04-07T21:22:22.924Z,5.40
2023-04-07T21:24:50.832Z,5.40
2023-04-07T21:27:18.590Z,5.40
2023-04-07T21:29:46.359Z,5.40
2023-04-07T21:32:14.325Z,5.50
2023-04-07T21:34:42.319Z,5.40
2023-04-07T21:37:11.363Z,5.40
2023-04-07T21:39:39.056Z,5.50
2023-04-07T21:42:13.041Z,5.50
2023-04-07T21:44:58.440Z,5.60
2023-04-07T21:47:26.283Z,5.50
2023-04-07T21:49:54.624Z,5.50
2023-04-07T21:52:23.846Z,5.40
2023-04-07T21:54:51.662Z,5.40
2023-04-07T21:57:19.481Z,5.40
2023-04-07T21:59:47.825Z,5.30
2023-04-07T22:02:15.896Z,5.40
2023-04-07T22:04:43.678Z,5.40
2023-04-07T22:07:11.747Z,5.30
2023-04-07T22:09:43.556Z,5.30
2023-04-07T22:12:11.322Z,5.30
2023-04-07T22:14:39.255Z,5.30
2023-04-07T22:17:07.127Z,5.20
2023-04-07T22:19:34.912Z,5.20
2023-04-07T22:22:02.844Z,5.30
2023-04-07T22:24:30.603Z,5.20
2023-04-07T22:26:59.757Z,5.20
2023-04-07T22:29:27.797Z,5.20
2023-04-07T22:31:55.646Z,5.20
2023-04-07T22:34:23.455Z,5.20
2023-04-07T22:36:51.358Z,5.20
2023-04-07T22:39:19.154Z,5.20
2023-04-07T22:41:46.860Z,5.20
2023-04-07T22:44:15.917Z,5.20
2023-04-07T22:46:43.662Z,5.20
2023-04-07T22:49:11.487Z,5.20
2023-04-07T22:51:39.225Z,5.20
2023-04-07T22:54:07.007Z,5.20
2023-04-07T22:56:34.718Z,5.20
2023-04-07T22:59:05.663Z,5.10
2023-04-07T23:01:35.323Z,5.00
2023-04-07T23:04:03.090Z,5.00
2023-04-07T23:06:32.085Z,5.00
2023-04-07T23:09:00.136Z,5.00
2023-04-07T23:11:27.874Z,5.00
2023-04-07T23:13:55.614Z,4.90
2023-04-07T23:16:23.641Z,4.90
2023-04-07T23:18:52.694Z,4.90
2023-04-07T23:21:20.981Z,4.90
2023-04-07T23:23:49.000Z,4.90
2023-04-07T23:26:16.743Z,4.90
2023-04-07T23:28:44.485Z,4.90
2023-04-07T23:31:12.253Z,4.90
2023-04-07T23:33:40.042Z,5.00
2023-04-07T23:36:09.414Z,4.90
2023-04-07T23:38:39.103Z,4.90
2023-04-07T23:41:06.958Z,4.90
2023-04-07T23:43:35.565Z,4.90
2023-04-07T23:46:03.313Z,4.90
2023-04-07T23:48:31.956Z,4.90
2023-04-07T23:51:00.634Z,4.90
2023-04-07T23:53:29.679Z,4.90
2023-04-07T23:55:59.211Z,4.80
2023-04-07T23:58:27.331Z,4.90
